createdAt,value
2019-05-25T00:01:05.361Z,2.85
2019-05-25T00:03:33.503Z,2.95
2019-05-25T00:06:01.614Z,2.45
2019-05-25T00:08:29.719Z,3.22
2019-05-25T00:10:57.856Z,2.95
2019-05-25T00:13:26.105Z,2.75
2019-05-25T00:15:54.311Z,3.35
2019-05-25T00:18:22.452Z,3.02
2019-05-25T00:20:50.596Z,2.80
2019-05-25T00:23:18.754Z,3.10
2019-05-25T00:25:46.904Z,2.83
2019-05-25T00:28:15.284Z,2.85
2019-05-25T00:30:43.453Z,3.22
2019-05-25T00:33:11.727Z,3.05
2019-05-25T00:35:39.876Z,2.80
2019-05-25T00:38:08.037Z,2.52
2019-05-25T00:40:36.335Z,2.70
2019-05-25T00:43:04.442Z,2.72
2019-05-25T00:45:32.587Z,2.50
2019-05-25T00:48:00.754Z,2.35
2019-05-25T00:50:28.857Z,2.25
2019-05-25T00:52:57.009Z,2.40
2019-05-25T00:55:25.155Z,2.80
2019-05-25T00:57:53.327Z,2.20
2019-05-25T01:00:22.045Z,2.30
2019-05-25T01:02:50.199Z,3.33
2019-05-25T01:05:18.323Z,3.35
2019-05-25T01:07:46.468Z,2.92
2019-05-25T01:10:15.471Z,2.45
2019-05-25T01:12:43.660Z,3.05
2019-05-25T01:15:12.460Z,2.47
2019-05-25T01:17:40.571Z,2.60
2019-05-25T01:20:09.154Z,2.72
2019-05-25T01:22:37.252Z,2.65
2019-05-25T01:25:05.915Z,2.98
2019-05-25T01:27:34.082Z,2.87
2019-05-25T01:30:02.267Z,2.20
2019-05-25T01:32:30.388Z,2.47
2019-05-25T01:34:58.568Z,2.50
2019-05-25T01:37:26.699Z,2.33
2019-05-25T01:39:54.835Z,2.40
2019-05-25T01:42:22.998Z,2.33
2019-05-25T01:44:51.100Z,2.10
2019-05-25T01:47:19.222Z,2.15
2019-05-25T01:49:47.450Z,1.62
2019-05-25T01:52:15.582Z,2.77
2019-05-25T01:54:58.560Z,1.92
2019-05-25T01:57:13.566Z,2.10
2019-05-25T01:59:41.750Z,1.75
2019-05-25T02:02:09.857Z,2.08
2019-05-25T02:04:37.968Z,1.90
2019-05-25T02:07:06.148Z,1.82
2019-05-25T02:09:34.353Z,2.20
2019-05-25T02:12:03.402Z,2.30
2019-05-25T02:14:31.561Z,3.37
2019-05-25T02:16:59.711Z,2.00
2019-05-25T02:19:27.857Z,2.30
2019-05-25T02:21:56.002Z,1.80
2019-05-25T02:24:24.112Z,1.92
2019-05-25T02:26:52.229Z,1.90
2019-05-25T02:29:20.350Z,1.90
2019-05-25T02:31:48.578Z,1.82
2019-05-25T02:34:16.761Z,1.60
2019-05-25T02:36:44.849Z,1.92
2019-05-25T02:39:17.220Z,1.90
2019-05-25T02:41:45.400Z,1.67
2019-05-25T02:44:13.628Z,1.50
2019-05-25T02:46:41.861Z,2.30
2019-05-25T02:49:09.966Z,1.87
2019-05-25T02:51:38.119Z,1.80
2019-05-25T02:54:06.235Z,1.57
2019-05-25T02:56:34.351Z,1.80
2019-05-25T02:59:03.651Z,1.85
2019-05-25T03:01:31.748Z,1.85
2019-05-25T03:03:59.839Z,2.00
2019-05-25T03:06:29.280Z,1.95
2019-05-25T03:08:57.400Z,1.67
2019-05-25T03:11:27.446Z,1.80
2019-05-25T03:13:55.555Z,1.50
2019-05-25T03:16:23.757Z,1.27
2019-05-25T03:18:51.905Z,1.42
2019-05-25T03:21:20.087Z,1.40
2019-05-25T03:23:48.189Z,1.47
2019-05-25T03:26:16.310Z,1.80
2019-05-25T03:28:44.471Z,1.42
2019-05-25T03:31:12.596Z,1.90
2019-05-25T03:33:40.725Z,4.70
2019-05-25T03:36:08.876Z,3.52
2019-05-25T03:38:37.070Z,1.62
2019-05-25T03:41:05.228Z,1.35
2019-05-25T03:43:33.313Z,1.45
2019-05-25T03:46:03.379Z,1.52
2019-05-25T03:48:31.507Z,1.45
2019-05-25T03:50:59.613Z,1.45
2019-05-25T03:53:27.749Z,1.72
2019-05-25T03:56:05.432Z,1.50
2019-05-25T03:58:25.760Z,1.70
2019-05-25T04:00:53.970Z,1.30
2019-05-25T04:03:22.108Z,1.17
2019-05-25T04:05:50.248Z,1.40
2019-05-25T04:08:18.350Z,1.50
2019-05-25T04:10:46.491Z,1.60
2019-05-25T04:13:14.629Z,1.40
2019-05-25T04:15:42.725Z,1.40
2019-05-25T04:18:10.951Z,1.62
2019-05-25T04:20:39.150Z,1.50
2019-05-25T04:23:07.302Z,1.27
2019-05-25T04:25:35.591Z,1.45
2019-05-25T04:28:03.701Z,1.72
2019-05-25T04:30:31.830Z,1.85
2019-05-25T04:32:59.969Z,2.00
2019-05-25T04:35:28.106Z,2.12
2019-05-25T04:37:56.253Z,2.20
2019-05-25T04:40:24.400Z,2.58
2019-05-25T04:42:52.525Z,2.20
2019-05-25T04:45:20.741Z,2.20
2019-05-25T04:47:48.939Z,2.60
2019-05-25T04:50:17.251Z,1.98
2019-05-25T04:52:45.379Z,2.08
2019-05-25T04:55:13.909Z,1.67
2019-05-25T04:57:42.049Z,2.30
2019-05-25T05:00:10.980Z,1.67
2019-05-25T05:02:39.110Z,1.85
2019-05-25T05:05:07.227Z,2.05
2019-05-25T05:07:35.415Z,1.60
2019-05-25T05:10:07.071Z,1.57
2019-05-25T05:12:35.251Z,1.40
2019-05-25T05:15:04.075Z,1.67
2019-05-25T05:17:32.233Z,1.57
2019-05-25T05:20:00.351Z,1.45
2019-05-25T05:22:28.488Z,1.40
2019-05-25T05:24:56.624Z,1.95
2019-05-25T05:27:26.128Z,1.32
2019-05-25T05:29:54.261Z,1.47
2019-05-25T05:32:27.598Z,1.35
2019-05-25T05:34:52.335Z,1.40
2019-05-25T05:37:22.258Z,1.40
2019-05-25T05:39:51.854Z,1.40
2019-05-25T05:42:23.283Z,1.50
2019-05-25T05:44:53.567Z,2.15
2019-05-25T05:47:23.978Z,1.65
2019-05-25T05:49:53.736Z,1.60
2019-05-25T05:52:24.225Z,1.67
2019-05-25T05:54:53.473Z,1.42
2019-05-25T05:57:21.598Z,1.77
2019-05-25T05:59:49.750Z,1.52
2019-05-25T06:02:17.908Z,1.70
2019-05-25T06:04:46.071Z,1.45
2019-05-25T06:07:14.209Z,1.62
2019-05-25T06:09:42.384Z,1.52
2019-05-25T06:12:10.566Z,1.40
2019-05-25T06:14:38.733Z,1.85
2019-05-25T06:17:06.893Z,1.55
2019-05-25T06:19:35.131Z,1.25
2019-05-25T06:22:03.275Z,1.47
2019-05-25T06:24:32.972Z,1.50
2019-05-25T06:27:01.129Z,1.67
2019-05-25T06:29:29.293Z,2.10
2019-05-25T06:31:57.429Z,1.87
2019-05-25T06:34:25.632Z,2.30
2019-05-25T06:36:53.769Z,2.27
2019-05-25T06:39:22.082Z,2.20
2019-05-25T06:41:50.232Z,2.40
2019-05-25T06:44:18.426Z,2.27
2019-05-25T06:46:46.547Z,3.10
2019-05-25T06:49:14.673Z,2.05
2019-05-25T06:51:42.848Z,1.95
2019-05-25T06:54:11.750Z,2.37
2019-05-25T06:56:39.850Z,1.90
2019-05-25T06:59:07.974Z,2.27
2019-05-25T07:01:36.097Z,2.58
2019-05-25T07:04:04.313Z,1.92
2019-05-25T07:06:32.526Z,1.98
2019-05-25T07:09:00.635Z,1.98
2019-05-25T07:11:28.791Z,2.27
2019-05-25T07:13:56.959Z,1.85
2019-05-25T07:16:25.081Z,2.70
2019-05-25T07:18:53.229Z,2.00
2019-05-25T07:21:21.372Z,2.58
2019-05-25T07:23:49.528Z,2.30
2019-05-25T07:26:17.674Z,1.98
2019-05-25T07:28:45.824Z,2.47
2019-05-25T07:31:13.962Z,2.52
2019-05-25T07:33:42.059Z,1.98
2019-05-25T07:36:10.297Z,2.25
2019-05-25T07:38:38.434Z,2.60
2019-05-25T07:41:06.549Z,2.50
2019-05-25T07:43:34.668Z,2.35
2019-05-25T07:46:02.782Z,2.30
2019-05-25T07:48:30.908Z,2.58
2019-05-25T07:50:59.033Z,2.60
2019-05-25T07:53:27.244Z,3.52
2019-05-25T07:55:55.386Z,4.78
2019-05-25T07:58:23.547Z,3.22
2019-05-25T08:00:51.822Z,3.45
2019-05-25T08:03:19.977Z,4.20
2019-05-25T08:05:48.280Z,3.45
2019-05-25T08:08:16.488Z,3.80
2019-05-25T08:10:44.778Z,4.00
2019-05-25T08:13:12.948Z,3.37
2019-05-25T08:15:41.509Z,3.08
2019-05-25T08:18:09.652Z,3.08
2019-05-25T08:20:37.814Z,2.85
2019-05-25T08:23:06.022Z,1.95
2019-05-25T08:25:34.238Z,1.87
2019-05-25T08:28:02.388Z,0.88
2019-05-25T08:30:30.543Z,0.60
2019-05-25T08:32:58.721Z,0.98
2019-05-25T08:35:26.849Z,0.93
2019-05-25T08:37:54.976Z,0.90
2019-05-25T08:40:23.352Z,0.60
2019-05-25T08:42:51.499Z,0.70
2019-05-25T08:45:19.597Z,0.68
2019-05-25T08:47:47.757Z,0.72
2019-05-25T08:50:15.881Z,0.90
2019-05-25T08:52:44.005Z,0.60
2019-05-25T08:55:12.569Z,0.88
2019-05-25T08:57:40.708Z,0.88
2019-05-25T09:00:09.252Z,0.82
2019-05-25T09:02:37.414Z,0.90
2019-05-25T09:05:05.873Z,0.65
2019-05-25T09:07:34.013Z,1.00
2019-05-25T09:10:02.126Z,0.78
2019-05-25T09:12:30.280Z,0.40
2019-05-25T09:14:58.468Z,0.47
2019-05-25T09:17:26.613Z,0.50
2019-05-25T09:19:54.723Z,0.50
2019-05-25T09:22:22.937Z,0.35
2019-05-25T09:24:53.811Z,0.53
2019-05-25T09:27:21.914Z,0.40
2019-05-25T09:29:50.067Z,0.30
2019-05-25T09:32:18.154Z,0.35
2019-05-25T09:34:46.297Z,0.40
2019-05-25T09:37:14.391Z,0.42
2019-05-25T09:39:42.575Z,0.50
2019-05-25T09:42:10.692Z,0.42
2019-05-25T09:44:38.823Z,0.45
2019-05-25T09:47:06.940Z,0.60
2019-05-25T09:49:35.063Z,0.42
2019-05-25T09:52:03.165Z,0.50
2019-05-25T09:54:31.565Z,0.40
2019-05-25T09:56:59.800Z,0.37
2019-05-25T09:59:27.925Z,0.57
2019-05-25T10:01:56.127Z,0.65
2019-05-25T10:04:24.266Z,0.85
2019-05-25T10:06:52.409Z,0.37
2019-05-25T10:09:20.588Z,0.70
2019-05-25T10:11:48.882Z,0.45
2019-05-25T10:14:17.034Z,0.50
2019-05-25T10:16:45.193Z,0.62
2019-05-25T10:19:13.327Z,0.50
2019-05-25T10:21:41.506Z,0.60
2019-05-25T10:24:09.721Z,0.40
2019-05-25T10:26:38.564Z,0.57
2019-05-25T10:29:06.678Z,0.55
2019-05-25T10:31:35.140Z,0.40
2019-05-25T10:34:03.817Z,0.70
2019-05-25T10:36:31.947Z,0.40
2019-05-25T10:39:00.090Z,0.60
2019-05-25T10:41:28.259Z,0.40
2019-05-25T10:43:56.459Z,0.70
2019-05-25T10:46:24.706Z,0.70
2019-05-25T10:48:52.832Z,0.40
2019-05-25T10:51:20.943Z,0.40
2019-05-25T10:53:49.144Z,0.60
2019-05-25T10:56:17.289Z,0.70
2019-05-25T10:58:45.412Z,0.65
2019-05-25T11:01:13.584Z,1.07
2019-05-25T11:03:41.745Z,1.87
2019-05-25T11:06:09.869Z,0.93
2019-05-25T11:08:37.979Z,0.70
2019-05-25T11:11:06.137Z,0.70
2019-05-25T11:13:34.257Z,0.90
2019-05-25T11:16:02.373Z,0.90
2019-05-25T11:18:30.575Z,1.00
2019-05-25T11:20:58.737Z,0.90
2019-05-25T11:23:26.870Z,0.88
2019-05-25T11:25:55.031Z,1.17
2019-05-25T11:28:23.176Z,1.15
2019-05-25T11:30:51.331Z,1.40
2019-05-25T11:33:19.607Z,1.20
2019-05-25T11:35:47.730Z,1.62
2019-05-25T11:38:15.971Z,1.45
2019-05-25T11:40:44.119Z,1.42
2019-05-25T11:43:12.275Z,1.50
2019-05-25T11:45:40.410Z,1.80
2019-05-25T11:48:08.601Z,1.60
2019-05-25T11:50:36.776Z,1.60
2019-05-25T11:53:05.993Z,1.37
2019-05-25T11:55:34.390Z,1.40
2019-05-25T11:58:05.159Z,1.30
2019-05-25T12:00:34.094Z,1.40
2019-05-25T12:03:03.832Z,1.22
2019-05-25T12:05:32.053Z,1.15
2019-05-25T12:08:00.194Z,0.80
2019-05-25T12:10:28.330Z,1.07
2019-05-25T12:12:56.489Z,1.02
2019-05-25T12:15:24.665Z,1.20
2019-05-25T12:17:52.813Z,2.08
2019-05-25T12:20:21.665Z,1.20
2019-05-25T12:22:49.785Z,0.95
2019-05-25T12:25:18.563Z,1.30
2019-05-25T12:27:49.394Z,0.80
2019-05-25T12:30:18.257Z,0.80
2019-05-25T12:32:46.440Z,1.20
2019-05-25T12:35:16.066Z,0.90
2019-05-25T12:37:44.315Z,1.25
2019-05-25T12:40:12.961Z,0.80
2019-05-25T12:42:41.137Z,0.80
2019-05-25T12:45:09.549Z,0.88
2019-05-25T12:47:37.736Z,1.22
2019-05-25T12:50:07.117Z,1.40
2019-05-25T12:52:35.339Z,1.50
2019-05-25T12:55:03.845Z,0.90
2019-05-25T12:57:32.007Z,0.80
2019-05-25T13:00:14.297Z,0.95
2019-05-25T13:02:30.023Z,1.00
2019-05-25T13:04:58.161Z,1.20
2019-05-25T13:07:26.286Z,1.32
2019-05-25T13:09:54.451Z,1.40
2019-05-25T13:12:22.619Z,1.35
2019-05-25T13:14:50.827Z,1.10
2019-05-25T13:17:19.031Z,1.30
2019-05-25T13:19:47.526Z,1.30
2019-05-25T13:22:15.798Z,1.62
2019-05-25T13:24:43.922Z,3.12
2019-05-25T13:27:12.119Z,2.83
2019-05-25T13:29:40.320Z,1.92
2019-05-25T13:32:08.727Z,1.70
2019-05-25T13:34:36.844Z,1.10
2019-05-25T13:37:05.089Z,0.93
2019-05-25T13:39:33.210Z,1.27
2019-05-25T13:42:02.951Z,1.35
2019-05-25T13:44:31.063Z,2.77
2019-05-25T13:46:59.255Z,1.57
2019-05-25T13:49:27.360Z,1.40
2019-05-25T13:51:55.506Z,1.35
2019-05-25T13:54:23.676Z,1.10
2019-05-25T13:56:51.869Z,1.32
2019-05-25T13:59:20.003Z,1.40
2019-05-25T14:01:48.109Z,1.37
2019-05-25T14:04:16.231Z,1.45
2019-05-25T14:06:44.324Z,2.12
2019-05-25T14:09:15.622Z,2.33
2019-05-25T14:11:42.312Z,2.08
2019-05-25T14:14:10.414Z,1.30
2019-05-25T14:16:38.546Z,1.40
2019-05-25T14:19:06.671Z,1.05
2019-05-25T14:21:34.797Z,1.40
2019-05-25T14:24:02.941Z,1.30
2019-05-25T14:26:31.044Z,1.62
2019-05-25T14:28:59.235Z,3.22
2019-05-25T14:31:44.104Z,2.25
2019-05-25T14:33:57.231Z,1.30
2019-05-25T14:36:25.382Z,1.95
2019-05-25T14:38:53.557Z,1.40
2019-05-25T14:41:21.694Z,1.82
2019-05-25T14:43:49.910Z,1.95
2019-05-25T14:46:27.342Z,1.75
2019-05-25T14:48:47.859Z,1.42
2019-05-25T14:51:16.011Z,1.72
2019-05-25T14:53:44.165Z,1.80
2019-05-25T14:56:12.309Z,2.27
2019-05-25T14:58:40.504Z,2.25
2019-05-25T15:01:09.256Z,1.45
2019-05-25T15:03:37.424Z,1.80
2019-05-25T15:06:05.500Z,1.50
2019-05-25T15:08:35.773Z,1.80
2019-05-25T15:11:03.896Z,2.17
2019-05-25T15:13:32.048Z,1.80
2019-05-25T15:16:00.257Z,2.15
2019-05-25T15:18:28.440Z,2.30
2019-05-25T15:20:56.930Z,2.05
2019-05-25T15:23:25.121Z,2.00
2019-05-25T15:25:53.295Z,10.82
2019-05-25T15:28:21.429Z,1.60
2019-05-25T15:30:49.538Z,1.85
2019-05-25T15:33:17.720Z,1.57
2019-05-25T15:35:45.870Z,1.67
2019-05-25T15:38:14.030Z,1.50
2019-05-25T15:40:42.185Z,2.00
2019-05-25T15:43:10.446Z,2.37
2019-05-25T15:45:38.595Z,1.62
2019-05-25T15:48:06.749Z,1.40
2019-05-25T15:50:34.969Z,1.98
2019-05-25T15:53:04.319Z,1.62
2019-05-25T15:55:32.495Z,1.60
2019-05-25T15:58:00.629Z,1.30
2019-05-25T16:00:53.900Z,1.90
2019-05-25T16:03:22.112Z,1.80
2019-05-25T16:05:50.203Z,1.42
2019-05-25T16:08:19.420Z,1.72
2019-05-25T16:10:47.628Z,1.80
2019-05-25T16:13:15.880Z,2.17
2019-05-25T16:15:44.023Z,1.72
2019-05-25T16:18:12.287Z,1.32
2019-05-25T16:20:40.422Z,1.42
2019-05-25T16:23:09.423Z,1.60
2019-05-25T16:25:37.565Z,1.40
2019-05-25T16:28:05.695Z,2.20
2019-05-25T16:30:33.852Z,1.75
2019-05-25T16:33:17.327Z,1.47
2019-05-25T16:35:31.993Z,1.95
2019-05-25T16:38:00.448Z,2.08
2019-05-25T16:40:28.955Z,2.08
2019-05-25T16:42:57.078Z,1.90
2019-05-25T16:45:25.219Z,1.80
2019-05-25T16:47:53.411Z,2.05
2019-05-25T16:50:21.611Z,1.57
2019-05-25T16:52:49.901Z,2.00
2019-05-25T16:55:18.008Z,1.60
2019-05-25T16:57:46.201Z,1.67
2019-05-25T17:00:17.372Z,1.60
2019-05-25T17:02:45.505Z,1.70
2019-05-25T17:05:13.866Z,1.75
2019-05-25T17:07:41.999Z,1.80
2019-05-25T17:10:10.287Z,2.50
2019-05-25T17:12:38.445Z,1.42
2019-05-25T17:15:06.815Z,1.57
2019-05-25T17:17:34.969Z,1.60
2019-05-25T17:20:03.558Z,2.60
2019-05-25T17:22:31.724Z,3.12
2019-05-25T17:24:59.927Z,2.20
2019-05-25T17:27:28.079Z,2.05
2019-05-25T17:29:56.272Z,2.30
2019-05-25T17:32:24.397Z,2.25
2019-05-25T17:34:52.613Z,2.15
2019-05-25T17:37:20.773Z,2.75
2019-05-25T17:39:48.878Z,2.22
2019-05-25T17:42:17.057Z,2.37
2019-05-25T17:44:45.219Z,4.00
2019-05-25T17:47:13.350Z,2.30
2019-05-25T17:49:41.528Z,2.40
2019-05-25T17:52:09.685Z,1.90
2019-05-25T17:54:37.968Z,1.90
2019-05-25T17:57:06.150Z,2.25
2019-05-25T17:59:34.410Z,1.67
2019-05-25T18:02:02.603Z,1.65
2019-05-25T18:04:30.761Z,1.60
2019-05-25T18:06:58.962Z,2.00
2019-05-25T18:09:27.113Z,2.08
2019-05-25T18:11:55.260Z,2.80
2019-05-25T18:14:23.431Z,2.92
2019-05-25T18:16:51.611Z,3.25
2019-05-25T18:19:19.755Z,3.00
2019-05-25T18:21:47.877Z,3.00
2019-05-25T18:24:16.160Z,2.90
2019-05-25T18:26:44.446Z,3.35
2019-05-25T18:29:12.605Z,2.77
2019-05-25T18:31:40.772Z,3.08
2019-05-25T18:34:21.689Z,3.22
2019-05-25T18:36:38.748Z,2.67
2019-05-25T18:39:07.238Z,3.35
2019-05-25T18:41:35.409Z,3.45
2019-05-25T18:44:03.556Z,3.55
2019-05-25T18:46:31.752Z,3.25
2019-05-25T18:48:59.886Z,3.87
2019-05-25T18:51:28.123Z,4.08
2019-05-25T18:53:56.292Z,3.60
2019-05-25T18:56:24.463Z,3.45
2019-05-25T18:58:52.568Z,3.67
2019-05-25T19:01:20.699Z,4.30
2019-05-25T19:03:48.886Z,3.75
2019-05-25T19:06:17.039Z,3.72
2019-05-25T19:08:45.279Z,4.45
2019-05-25T19:11:13.510Z,3.98
2019-05-25T19:13:41.716Z,3.58
2019-05-25T19:16:10.141Z,4.33
2019-05-25T19:18:38.350Z,3.80
2019-05-25T19:21:06.519Z,3.87
2019-05-25T19:23:34.689Z,3.87
2019-05-25T19:26:03.151Z,4.20
2019-05-25T19:28:31.301Z,4.55
2019-05-25T19:30:59.487Z,4.28
2019-05-25T19:33:28.361Z,4.33
2019-05-25T19:35:56.559Z,4.17
2019-05-25T19:38:24.700Z,4.00
2019-05-25T19:40:52.837Z,4.55
2019-05-25T19:43:20.988Z,4.47
2019-05-25T19:45:49.307Z,3.98
2019-05-25T19:48:17.431Z,3.87
2019-05-25T19:50:45.924Z,3.62
2019-05-25T19:53:14.074Z,3.40
2019-05-25T19:55:42.238Z,3.90
2019-05-25T19:58:10.362Z,3.40
2019-05-25T20:00:38.667Z,3.42
2019-05-25T20:03:06.777Z,3.33
2019-05-25T20:05:34.911Z,3.45
2019-05-25T20:08:03.673Z,4.22
2019-05-25T20:10:31.797Z,3.87
2019-05-25T20:12:59.930Z,3.67
2019-05-25T20:15:28.033Z,4.33
2019-05-25T20:17:56.223Z,3.95
2019-05-25T20:20:24.391Z,4.20
2019-05-25T20:22:52.510Z,3.50
2019-05-25T20:25:20.663Z,3.70
2019-05-25T20:27:48.792Z,3.80
2019-05-25T20:30:17.061Z,3.62
2019-05-25T20:32:45.196Z,3.83
2019-05-25T20:35:13.575Z,4.00
2019-05-25T20:37:41.730Z,3.45
2019-05-25T20:40:10.320Z,3.80
2019-05-25T20:42:38.695Z,4.00
2019-05-25T20:45:07.601Z,4.58
2019-05-25T20:47:35.729Z,4.08
2019-05-25T20:50:05.691Z,4.10
2019-05-25T20:52:33.828Z,4.53
2019-05-25T20:55:01.941Z,4.12
2019-05-25T20:57:30.113Z,3.62
2019-05-25T20:59:58.338Z,4.45
2019-05-25T21:02:26.506Z,4.60
2019-05-25T21:04:54.682Z,4.12
2019-05-25T21:07:22.790Z,4.60
2019-05-25T21:09:50.917Z,4.67
2019-05-25T21:12:19.137Z,5.70
2019-05-25T21:14:47.252Z,5.65
2019-05-25T21:17:15.911Z,5.15
2019-05-25T21:19:44.038Z,5.42
2019-05-25T21:22:12.193Z,4.87
2019-05-25T21:24:40.346Z,5.75
2019-05-25T21:27:08.475Z,5.37
2019-05-25T21:29:36.664Z,6.17
2019-05-25T21:32:04.968Z,5.97
2019-05-25T21:34:33.105Z,6.15
2019-05-25T21:37:04.408Z,5.92
2019-05-25T21:39:34.788Z,5.85
2019-05-25T21:42:02.927Z,5.42
2019-05-25T21:44:31.051Z,5.58
2019-05-25T21:46:59.277Z,5.95
2019-05-25T21:49:27.405Z,5.65
2019-05-25T21:51:55.545Z,5.25
2019-05-25T21:54:23.731Z,5.42
2019-05-25T21:56:51.901Z,5.42
2019-05-25T21:59:20.035Z,5.95
2019-05-25T22:01:48.295Z,6.17
2019-05-25T22:04:16.462Z,5.45
2019-05-25T22:06:44.709Z,5.78
2019-05-25T22:09:12.826Z,5.22
2019-05-25T22:11:40.939Z,5.80
2019-05-25T22:14:09.094Z,5.78
2019-05-25T22:16:37.229Z,5.45
2019-05-25T22:19:05.365Z,5.37
2019-05-25T22:21:33.738Z,5.03
2019-05-25T22:24:01.847Z,5.45
2019-05-25T22:26:30.010Z,5.47
2019-05-25T22:28:58.243Z,5.60
2019-05-25T22:31:26.368Z,6.50
2019-05-25T22:33:54.512Z,7.00
2019-05-25T22:36:22.635Z,5.60
2019-05-25T22:38:50.773Z,5.60
2019-05-25T22:41:19.963Z,5.08
2019-05-25T22:43:48.322Z,6.22
2019-05-25T22:46:16.433Z,5.62
2019-05-25T22:48:44.575Z,5.45
2019-05-25T22:51:12.705Z,5.20
2019-05-25T22:53:40.866Z,5.22
2019-05-25T22:56:08.995Z,5.55
2019-05-25T22:58:37.162Z,5.37
2019-05-25T23:01:05.356Z,5.00
2019-05-25T23:03:33.579Z,5.78
2019-05-25T23:06:01.705Z,5.60
2019-05-25T23:08:29.864Z,5.50
2019-05-25T23:10:57.977Z,5.30
2019-05-25T23:13:26.087Z,6.22
2019-05-25T23:15:54.273Z,5.58
2019-05-25T23:18:22.440Z,6.25
2019-05-25T23:20:50.600Z,6.33
2019-05-25T23:23:18.724Z,6.35
2019-05-25T23:25:46.888Z,6.42
2019-05-25T23:28:15.025Z,6.65
2019-05-25T23:30:43.145Z,5.97
2019-05-25T23:33:11.430Z,6.83
2019-05-25T23:35:39.599Z,6.15
2019-05-25T23:38:07.743Z,6.40
2019-05-25T23:40:35.907Z,6.53
2019-05-25T23:43:04.046Z,6.22
2019-05-25T23:45:32.160Z,6.28
2019-05-25T23:48:00.331Z,6.58
2019-05-25T23:50:28.431Z,6.22
2019-05-25T23:52:56.581Z,5.75
2019-05-25T23:55:24.730Z,6.55
2019-05-25T23:57:53.684Z,6.12
